Latest Coastal Weather Observations for Devonport Airport

IDV60701

Issued at 1:31 am EST Saturday 1 August 2015 (issued every 10 minutes, with the page automatically refreshed every 10 minutes)

About coastal observations | Map of coastal stations | Coastal observations for VIC | Marine services | Other Formats
Station Details ID: 091126 Name: DEVONPORT AIRPORT Lat: -41.17 Lon: 146.43 Height: 8.0 m
Data from the previous 72 hours. | See also: Recent months at Devonport Airport
Date/Time
EST
Temp

°C
Wind Pressure Rain
since 9am
mm
Weather Cloud Vis
km
Sea
Height
m
Swell
Dir
 
Speed
knots
Gust
knots
hPa Trend Height
m
Period
s
Dir
01/01:30am 10.8 NNW 26 32 1005.5 - 0.2 - Partly cloudy 10 - - - -
01/01:00am 10.9 NNW 29 39 1006.2 - 0.2 - Cloudy 10 - - - -
01/12:59am 10.9 NNW 29 39 1006.4 - 0.2 - Cloudy 10 - - - -
01/12:51am 10.9 NNW 29 39 1006.2 - 0.2 - Cloudy 10 - - - -
01/12:39am 10.6 NNW 21 31 1006.7 - 0.2 - Partly cloudy 10 - - - -
01/12:30am 10.0 NNW 21 27 1007.3 - 0.2 - Partly cloudy 10 - - - -
01/12:00am 10.5 NNW 21 26 1008.5 - 0.2 - Mostly cloudy 10 - - - -
 
Date/Time
EST
Temp

°C
Wind Pressure Rain
since 9am
mm
Weather Cloud Vis
km
Sea
Height
m
Swell
Dir
 
Speed
knots
Gust
knots
hPa Trend Height
m
Period
s
Dir
31/11:30pm 10.1 NW 19 24 1009.2 - 0.2 - Partly cloudy 10 - - - -
31/11:00pm 10.1 NNW 21 27 1010.1 - 0.2 - Partly cloudy 10 - - - -
31/10:30pm 10.0 NNW 24 31 1010.5 - 0.2 - Partly cloudy 10 - - - -
31/10:00pm 10.2 NNW 22 28 1010.5 - 0.2 - Partly cloudy 10 - - - -
31/09:30pm 10.2 NNW 23 29 1011.1 - 0.2 - Partly cloudy 10 - - - -
31/09:00pm 10.1 NNW 22 27 1011.1 - 0.2 - Cloudy 10 - - - -
31/08:46pm 10.0 NNW 17 27 1011.5 - 0.2 - Partly cloudy 10 - - - -
31/08:30pm 9.5 NNW 17 22 1012.0 - 0.2 - Partly cloudy 10 - - - -
31/08:00pm 8.7 NW 20 26 1012.4 - 0.2 - Partly cloudy 7 - - - -
31/07:45pm 9.6 NW 19 31 1012.3 - 0.2 - Partly cloudy 10 - - - -
31/07:30pm 9.5 NW 18 22 1012.6 - 0.2 - Partly cloudy 10 - - - -
31/07:00pm 9.5 NW 17 24 1012.5 - 0.2 - Partly cloudy 10 - - - -
31/06:30pm 9.2 NW 16 21 1012.9 - 0.2 - Partly cloudy 10 - - - -
31/06:00pm 8.7 NW 15 21 1013.3 - 0.2 Showers Cloudy 10 - - - -
31/05:30pm 9.3 NW 19 23 1013.1 - 0.2 - Partly cloudy 10 - - - -
31/05:00pm 9.1 NW 17 22 1013.1 - 0.2 - Partly cloudy 10 - - - -
31/04:45pm 9.0 NW 14 18 1013.1 - 0.2 - Partly cloudy 10 - - - -
31/04:34pm 8.4 NW 19 29 1013.1 - 0.2 - Partly cloudy 6 - - - -
31/04:32pm 8.2 NW 21 29 1013.2 - 0.2 - Partly cloudy 6 - - - -
31/04:30pm 8.3 NW 22 29 1013.2 - 0.2 - Partly cloudy 7 - - - -
31/04:23pm 9.0 NW 18 29 1013.3 - 0.0 - Partly cloudy 10 - - - -
31/04:00pm 9.7 NW 17 20 1013.7 - 0.0 - Partly cloudy 10 - - - -
31/03:30pm 10.2 NW 17 21 1013.8 - 0.0 - Partly cloudy 10 - - - -
31/03:00pm 9.9 NW 19 23 1014.3 - 0.0 - Partly cloudy 10 - - - -
31/02:30pm 10.2 NW 15 19 1014.5 - 0.0 - Partly cloudy 10 - - - -
31/02:00pm 10.5 NW 16 21 1014.8 - 0.0 - Partly cloudy 10 - - - -
31/01:30pm 10.2 NW 17 20 1015.4 - 0.0 - Partly cloudy 10 - - - -
31/01:00pm 10.3 NW 13 16 1015.7 - 0.0 - Partly cloudy 10 - - - -
31/12:30pm 10.1 NW 13 16 1016.1 - 0.0 - - 10 - - - -
31/12:00pm 9.4 NW 13 15 1016.6 - 0.0 - - 10 - - - -
31/11:30am 9.5 NW 11 14 1016.9 - 0.0 - - 10 - - - -
31/11:00am 9.1 WNW 13 17 1017.3 - 0.0 - - 10 - - - -
31/10:30am 8.6 WNW 11 13 1017.5 - 0.0 - - 10 - - - -
31/10:00am 8.4 WNW 7 11 1017.3 - 0.0 - - 10 - - - -
31/09:30am 7.6 WNW 6 8 1016.8 - 0.0 - - 10 - - - -
31/09:00am 6.2 WSW 4 5 1016.6 - 4.4 - - 10 - - - -
31/08:30am 4.8 WSW 5 7 1016.6 - 4.4 - - 10 - - - -
31/08:00am 4.1 WSW 6 7 1016.5 - 4.4 - - 10 - - - -
31/07:30am 2.4 W 8 9 1016.2 - 4.4 - - 10 - - - -
31/07:00am 3.0 W 6 8 1015.9 - 4.4 - - 10 - - - -
31/06:30am 3.9 W 8 9 1015.5 - 4.4 - - 10 - - - -
31/06:00am 3.7 WSW 6 8 1015.2 - 4.4 - - 10 - - - -
31/05:30am 3.6 W 9 12 1015.0 - 4.4 - - 10 - - - -
31/05:00am 3.8 W 7 7 1014.7 - 4.4 - - 10 - - - -
31/04:30am 4.7 W 9 12 1014.5 - 4.4 - - 10 - - - -
31/04:00am 4.3 W 8 9 1014.2 - 4.4 - - 10 - - - -
31/03:30am 5.1 SW 6 7 1014.0 - 4.4 - - 10 - - - -
31/03:00am 5.0 SW 7 11 1013.8 - 4.4 - - 10 - - - -
31/02:30am 5.4 W 11 15 1013.6 - 4.4 - - 10 - - - -
31/02:00am 6.5 W 13 16 1013.0 - 4.4 - - 10 - - - -
31/01:30am 6.2 W 12 15 1012.5 - 4.4 - - 10 - - - -
31/01:00am 5.8 WSW 10 13 1012.2 - 4.4 - - 10 - - - -
31/12:30am 6.5 W 16 21 1011.5 - 4.4 - - 10 - - - -
31/12:00am 6.1 W 10 13 1011.0 - 4.4 - - 10 - - - -
 
Date/Time
EST
Temp

°C
Wind Pressure Rain
since 9am
mm
Weather Cloud Vis
km
Sea
Height
m
Swell
Dir
 
Speed
knots
Gust
knots
hPa Trend Height
m
Period
s
Dir
30/11:30pm 6.2 W 5 7 1010.3 - 4.4 - - 10 - - - -
30/11:00pm 6.7 WSW 7 9 1009.7 - 4.4 - - 10 - - - -
30/10:30pm 7.4 WSW 13 19 1008.8 - 4.4 - - 10 - - - -
30/10:00pm 7.8 W 13 21 1007.7 - 4.4 - Partly cloudy 10 - - - -
30/09:30pm 8.7 W 19 24 1006.8 - 4.4 - Partly cloudy 10 - - - -
30/09:00pm 9.2 WNW 22 27 1006.3 - 4.4 Drizzle Cloudy 10 - - - -
30/08:46pm 9.4 WNW 18 26 1006.0 - 4.4 - Partly cloudy 10 - - - -
30/08:30pm 9.0 W 13 16 1005.5 - 4.4 - Partly cloudy 8 - - - -
30/08:00pm 9.0 W 14 20 1005.0 - 4.4 - Partly cloudy 10 - - - -
30/07:49pm 9.1 W 12 16 1004.4 - 4.4 - Partly cloudy 10 - - - -
30/07:45pm 9.2 W 12 18 1004.2 - 4.4 - Partly cloudy 10 - - - -
30/07:34pm 9.2 W 19 33 1004.8 - 4.4 - Partly cloudy 5 - - - -
30/07:30pm 9.5 WNW 26 38 1005.1 - 4.4 - Partly cloudy 5 - - - -
30/07:29pm 9.4 WNW 27 38 1005.0 - 4.4 - Partly cloudy 5 - - - -
30/07:00pm 10.3 NW 31 42 1004.1 - 3.6 - Partly cloudy 4 - - - -
30/06:59pm 10.2 NW 31 42 1003.9 - 3.6 - Partly cloudy 4 - - - -
30/06:30pm 9.9 NW 28 36 1004.5 - 3.6 - Partly cloudy 4 - - - -
30/06:23pm 10.0 NW 31 41 1004.5 - 3.6 - Partly cloudy 3 - - - -
30/06:00pm 10.5 NW 28 41 1004.9 - 3.4 Showers Cloudy 5 - - - -
30/05:58pm 10.7 NW 27 41 1004.8 - 3.4 - Partly cloudy 6 - - - -
30/05:57pm 10.7 NW 26 38 1004.9 - 3.2 - Partly cloudy 7 - - - -
30/05:30pm 11.1 NNW 27 34 1005.2 - 3.0 - Partly cloudy 10 - - - -
30/05:19pm 11.0 NNW 23 33 1005.5 - 3.0 - Partly cloudy 9 - - - -
30/05:00pm 10.5 NNW 25 33 1006.0 - 2.8 - Partly cloudy 8 - - - -
30/04:30pm 10.3 NNW 24 32 1006.6 - 2.4 - Partly cloudy 8 - - - -
30/04:15pm 10.3 NW 22 31 1007.1 - 2.0 - Partly cloudy 7 - - - -
30/04:00pm 10.0 NNW 25 33 1007.4 - 1.8 - Partly cloudy 6 - - - -
30/03:48pm 10.1 NNW 25 37 1007.5 - 1.2 - Partly cloudy 6 - - - -
30/03:38pm 10.0 NNW 27 36 1007.7 - 1.0 - Partly cloudy 6 - - - -
30/03:30pm 10.3 NNW 28 36 1007.8 - 0.8 - Partly cloudy 7 - - - -
30/03:00pm 10.2 NNW 23 32 1008.6 - 0.4 Showers Cloudy 9 - - - -
30/02:42pm 10.1 NNW 24 37 1008.8 - 0.4 - Partly cloudy 8 - - - -
30/02:30pm 10.4 NNW 24 30 1008.9 - 0.2 - Partly cloudy 10 - - - -
30/02:00pm 10.1 NNW 27 34 1009.6 - 0.2 - Partly cloudy 9 - - - -
30/01:30pm 11.3 NNW 25 33 1010.5 - 0.0 - Partly cloudy 10 - - - -
30/01:00pm 11.9 NNW 26 32 1011.2 - 0.0 - Partly cloudy 10 - - - -
30/12:41pm 12.0 NNW 24 34 1011.6 - 0.0 - Partly cloudy 10 - - - -
30/12:30pm 12.0 NNW 24 31 1011.9 - 0.0 - Partly cloudy 10 - - - -
30/12:00pm 12.0 NNW 21 28 1012.8 - 0.0 - Cloudy 10 - - - -
30/11:30am 11.7 NNW 22 29 1013.7 - 0.0 - Partly cloudy 10 - - - -
30/11:00am 11.7 NNW 24 30 1014.5 - 0.0 - Partly cloudy 10 - - - -
30/10:30am 11.7 NNW 21 26 1015.1 - 0.0 - Partly cloudy 10 - - - -
30/10:00am 11.3 NNW 21 27 1015.9 - 0.0 - Partly cloudy 10 - - - -
30/09:30am 11.1 NNW 20 26 1016.3 - 0.0 - Partly cloudy 10 - - - -
30/09:00am 11.0 NNW 19 24 1016.6 - 2.2 - Cloudy 10 - - - -
30/08:30am 10.9 NNW 19 25 1017.1 - 2.2 - Partly cloudy 10 - - - -
30/08:00am 10.9 NNW 19 25 1017.5 - 2.2 - Partly cloudy 10 - - - -
30/07:30am 10.9 NNW 19 24 1017.7 - 2.2 - Partly cloudy 10 - - - -
30/07:00am 10.8 NNW 19 24 1017.8 - 2.2 - Partly cloudy 10 - - - -
30/06:30am 10.9 NNW 19 25 1018.0 - 2.2 - Partly cloudy 10 - - - -
30/06:00am 10.8 NNW 17 22 1018.4 - 2.2 - Cloudy 10 - - - -
30/05:30am 10.9 NW 18 24 1018.9 - 2.2 - Cloudy 10 - - - -
30/05:00am 10.8 NNW 18 22 1019.1 - 2.2 - Cloudy 10 - - - -
30/04:30am 11.0 NNW 18 24 1019.6 - 2.2 - Cloudy 10 - - - -
30/04:00am 11.0 NNW 20 26 1019.9 - 2.2 - Cloudy 10 - - - -
30/03:30am 11.2 NW 19 26 1020.2 - 2.2 - Partly cloudy 10 - - - -
30/03:00am 11.2 NNW 18 24 1020.6 - 2.2 - Cloudy 10 - - - -
30/02:30am 11.3 NW 17 23 1021.2 - 2.2 - Partly cloudy 10 - - - -
30/02:00am 11.2 NNW 18 22 1021.4 - 2.2 - Partly cloudy 10 - - - -
30/01:30am 11.2 NW 17 22 1022.1 - 2.2 - Partly cloudy 10 - - - -
30/01:00am 11.2 NW 15 20 1022.5 - 2.2 - Partly cloudy 10 - - - -
30/12:30am 11.2 NNW 14 18 1022.8 - 2.2 - Partly cloudy 10 - - - -
30/12:00am 10.9 NNW 17 21 1023.2 - 2.0 - Cloudy 10 - - - -
 
Date/Time
EST
Temp

°C
Wind Pressure Rain
since 9am
mm
Weather Cloud Vis
km
Sea
Height
m
Swell
Dir
 
Speed
knots
Gust
knots
hPa Trend Height
m
Period
s
Dir
29/11:30pm 10.8 NW 11 15 1023.8 - 2.0 - Partly cloudy 10 - - - -
29/11:00pm 11.0 NW 17 24 1023.8 - 2.0 - Partly cloudy 10 - - - -
29/10:30pm 10.7 WNW 11 13 1024.3 - 2.0 - Partly cloudy 10 - - - -
29/10:00pm 10.6 WNW 17 23 1024.5 - 2.0 - Partly cloudy 10 - - - -
29/09:30pm 11.2 NW 16 20 1024.7 - 2.0 - Cloudy 10 - - - -
29/09:00pm 11.2 NW 15 19 1024.8 - 2.0 - Cloudy 10 - - - -
29/08:30pm 11.1 NW 15 19 1025.0 - 2.0 - Partly cloudy 10 - - - -
29/08:00pm 10.6 WNW 9 10 1025.1 - 2.0 - Partly cloudy 10 - - - -
29/07:30pm 10.5 WNW 10 13 1025.2 - 2.0 - Partly cloudy 10 - - - -
29/07:00pm 10.4 WNW 10 13 1025.2 - 2.0 - Partly cloudy 10 - - - -
29/06:30pm 10.4 WNW 12 15 1025.0 - 2.0 - Partly cloudy 10 - - - -
29/06:00pm 10.3 WNW 11 14 1025.0 - 2.0 Showers Mostly cloudy 10 - - - -
29/05:56pm 10.2 NW 12 16 1025.0 - 2.0 - Partly cloudy 10 - - - -
29/05:42pm 10.1 WNW 14 21 1024.9 - 2.0 - Partly cloudy 6 - - - -
29/05:41pm 10.2 WNW 14 21 1025.0 - 2.0 - Partly cloudy 7 - - - -
29/05:30pm 10.5 NW 12 17 1025.0 - 2.0 - Partly cloudy 5 - - - -
29/05:23pm 10.6 NW 12 17 1025.1 - 1.8 - Partly cloudy 6 - - - -
29/05:19pm 10.7 WNW 11 14 1025.2 - 1.6 - Partly cloudy 10 - - - -
29/05:00pm 10.4 WNW 11 13 1025.2 - 1.6 - Partly cloudy 10 - - - -
29/04:30pm 10.3 WNW 11 16 1025.4 - 1.6 - Partly cloudy 10 - - - -
29/04:03pm 10.4 NW 14 17 1025.8 - 1.6 - Partly cloudy 10 - - - -
29/04:00pm 10.4 NW 14 17 1025.8 - 1.6 - Partly cloudy 10 - - - -
29/03:59pm 10.4 NW 15 19 1025.8 - 1.6 - Partly cloudy 10 - - - -
29/03:35pm 10.1 WNW 17 21 1025.9 - 1.4 - Partly cloudy 6 - - - -
29/03:32pm 10.3 WNW 17 21 1026.0 - 1.4 - Partly cloudy 10 - - - -
29/03:30pm 10.3 WNW 16 21 1026.0 - 1.4 - Partly cloudy 10 - - - -
29/03:00pm 10.3 WNW 15 19 1026.3 - 0.2 Showers Cloudy 3 - - - -
29/02:52pm 10.4 NW 15 19 1026.4 - 0.0 - Partly cloudy 6 - - - -
29/02:45pm 10.8 NW 15 19 1026.4 - 0.0 - Partly cloudy 10 - - - -
29/02:30pm 10.8 NW 17 21 1026.4 - 0.0 - Partly cloudy 10 - - - -
29/02:00pm 10.7 NW 12 16 1026.6 - 0.0 - Partly cloudy 10 - - - -
29/01:59pm 11.0 NW 12 14 1026.6 - 0.0 - Partly cloudy 10 - - - -
29/01:42pm 10.3 NW 13 18 1026.9 - 0.0 - Partly cloudy 6 - - - -
29/01:37pm 10.7 NW 10 12 1027.0 - 0.0 - Partly cloudy 10 - - - -
29/01:30pm 10.9 NW 9 11 1027.1 - 0.0 - Partly cloudy 10 - - - -
29/01:00pm 11.3 NW 10 12 1027.7 - 0.0 - Partly cloudy 10 - - - -
29/12:30pm 10.6 NW 10 12 1028.3 - 0.0 - Partly cloudy 10 - - - -
29/12:00pm 10.6 WNW 8 11 1029.0 - 0.0 - Cloudy 10 - - - -
29/11:30am 10.3 NW 7 9 1029.5 - 0.0 - Partly cloudy 10 - - - -
29/11:00am 10.3 NW 9 11 1029.9 - 0.0 - Partly cloudy 10 - - - -
29/10:35am 9.6 NNW 4 6 1030.0 - 0.0 - Partly cloudy 10 - - - -
29/10:30am 9.5 NNW 3 5 1030.0 - 0.0 - Partly cloudy 10 - - - -
29/10:10am 8.8 WNW 5 6 1030.2 - 0.0 - Partly cloudy 10 - - - -
29/10:00am 9.4 WNW 4 7 1030.2 - 0.0 - Partly cloudy 10 - - - -
29/09:30am 7.9 CALM 0 0 1030.4 - 0.0 - Partly cloudy 10 - - - -
29/09:25am 7.7 SW 1 4 1030.4 - 0.0 - Partly cloudy 10 - - - -
29/09:15am 7.4 SW 4 4 1030.6 - 0.0 - Partly cloudy 10 - - - -
29/09:00am 7.2 WSW 4 5 1030.7 - 0.0 Drizzle Cloudy 5 - - - -
29/08:52am 7.0 W 4 5 1030.7 - 0.0 - Partly cloudy 7 - - - -
29/08:39am 5.8 W 4 5 1030.8 - 0.0 - Partly cloudy 6 - - - -
29/08:30am 5.6 W 3 4 1030.8 - 0.0 - Partly cloudy 10 - - - -
29/08:00am 5.4 W 4 5 1030.5 - 0.0 - Partly cloudy 10 - - - -
29/07:30am 4.8 W 6 7 1030.4 - 0.0 - Partly cloudy 10 - - - -
29/07:00am 3.6 WSW 4 5 1030.5 - 0.0 - - 10 - - - -
29/06:30am 4.5 WSW 3 5 1030.2 - 0.0 - - 10 - - - -
29/06:00am 4.4 SSW 3 4 1029.9 - 0.0 - Cloudy 10 - - - -
29/05:30am 4.5 SW 3 4 1029.6 - 0.0 - - 10 - - - -
29/05:00am 5.5 W 3 5 1029.7 - 0.0 - - 10 - - - -
29/04:30am 5.4 W 4 5 1029.5 - 0.0 - - 10 - - - -
29/04:00am 6.5 WSW 5 6 1029.5 - 0.0 - - 10 - - - -
29/03:30am 5.3 W 7 8 1029.6 - 0.0 - - 10 - - - -
29/03:00am 5.7 WSW 8 10 1029.8 - 0.0 - - 10 - - - -
29/02:30am 7.0 W 9 11 1029.6 - 0.0 - - 10 - - - -
29/02:00am 6.5 W 9 10 1029.5 - 0.0 - - 10 - - - -

Other Formats:

Comma delimited format used in spreadsheet applications
http://www.bom.gov.au/fwo/IDV60701/IDV60701.95960.axf

JavaScript Object Notation format (JSON) in row-major order
http://www.bom.gov.au/fwo/IDV60701/IDV60701.95960.json